Granada/Aeropuerto, Spain
Current Conditions -  °F | °C
As of 2:00 PM on Sunday 23 Nov 2014 (Local Time) from LEGR Reporting Station
Broken Clouds Broken Clouds  
Wind Chill: 70°   Ceiling: 10000
Heat Index: 70°   Visibility: 6mi
Dew Point: 48°   Wind: 2mph
Humidity: 46%   Direction: NA
Pressure: 29.85"   Gusts: NA
Location:  37.18°N, 3.78°W
Report Text: LEGR 231300Z VRB02KT 9999 FEW050 BKN100 21/09 Q1011
Loading
Personal Weather Stations






























Interactive Weather Map New forecast layout! Learn more

10-Day Weather Forecast

Advertisements
Track Severe Weather on mobile